sensor_id;sensor_type;location;lat;lon;timestamp;temperature;humidity
72128;DHT22;60000;51.030;7.024;2022-12-24T00:02:09;11.64;77.67
72128;DHT22;60000;51.030;7.024;2022-12-24T00:04:34;11.58;77.84
72128;DHT22;60000;51.030;7.024;2022-12-24T00:07:00;11.54;77.81
72128;DHT22;60000;51.030;7.024;2022-12-24T00:09:25;11.56;77.85
72128;DHT22;60000;51.030;7.024;2022-12-24T00:11:50;11.51;77.77
72128;DHT22;60000;51.030;7.024;2022-12-24T00:14:16;11.46;77.72
72128;DHT22;60000;51.030;7.024;2022-12-24T00:16:41;11.38;78.19
72128;DHT22;60000;51.030;7.024;2022-12-24T00:19:06;11.41;78.04
72128;DHT22;60000;51.030;7.024;2022-12-24T00:21:32;11.37;78.31
72128;DHT22;60000;51.030;7.024;2022-12-24T00:23:57;11.31;78.14
72128;DHT22;60000;51.030;7.024;2022-12-24T00:26:22;11.34;78.18
72128;DHT22;60000;51.030;7.024;2022-12-24T00:28:48;11.37;77.90
72128;DHT22;60000;51.030;7.024;2022-12-24T00:31:16;11.34;78.08
72128;DHT22;60000;51.030;7.024;2022-12-24T00:33:42;11.26;78.31
72128;DHT22;60000;51.030;7.024;2022-12-24T00:36:08;11.20;78.68
72128;DHT22;60000;51.030;7.024;2022-12-24T00:38:34;11.17;78.60
72128;DHT22;60000;51.030;7.024;2022-12-24T00:41:00;11.13;79.00
72128;DHT22;60000;51.030;7.024;2022-12-24T00:43:27;11.17;78.95
72128;DHT22;60000;51.030;7.024;2022-12-24T00:45:52;11.17;78.92
72128;DHT22;60000;51.030;7.024;2022-12-24T00:48:18;11.19;79.05
72128;DHT22;60000;51.030;7.024;2022-12-24T00:50:43;11.19;79.01
72128;DHT22;60000;51.030;7.024;2022-12-24T00:53:08;11.20;79.28
72128;DHT22;60000;51.030;7.024;2022-12-24T00:55:34;11.22;79.47
72128;DHT22;60000;51.030;7.024;2022-12-24T00:57:59;11.22;79.55
72128;DHT22;60000;51.030;7.024;2022-12-24T01:00:24;11.20;80.05
72128;DHT22;60000;51.030;7.024;2022-12-24T01:02:50;11.17;80.27
72128;DHT22;60000;51.030;7.024;2022-12-24T01:05:15;11.20;80.38
72128;DHT22;60000;51.030;7.024;2022-12-24T01:07:44;11.22;80.16
72128;DHT22;60000;51.030;7.024;2022-12-24T01:10:12;11.17;80.38
72128;DHT22;60000;51.030;7.024;2022-12-24T01:12:38;11.16;80.70
72128;DHT22;60000;51.030;7.024;2022-12-24T01:15:04;11.16;80.98
72128;DHT22;60000;51.030;7.024;2022-12-24T01:17:33;11.15;82.00
72128;DHT22;60000;51.030;7.024;2022-12-24T01:19:59;11.16;81.97
72128;DHT22;60000;51.030;7.024;2022-12-24T01:22:24;11.16;81.99
72128;DHT22;60000;51.030;7.024;2022-12-24T01:24:50;11.12;81.98
72128;DHT22;60000;51.030;7.024;2022-12-24T01:27:15;11.09;82.53
72128;DHT22;60000;51.030;7.024;2022-12-24T01:29:40;11.12;82.19
72128;DHT22;60000;51.030;7.024;2022-12-24T01:32:06;11.10;82.39
72128;DHT22;60000;51.030;7.024;2022-12-24T01:34:31;11.08;82.44
72128;DHT22;60000;51.030;7.024;2022-12-24T01:36:56;11.06;82.33
72128;DHT22;60000;51.030;7.024;2022-12-24T01:39:22;11.13;81.71
72128;DHT22;60000;51.030;7.024;2022-12-24T01:41:47;11.16;81.47
72128;DHT22;60000;51.030;7.024;2022-12-24T01:44:33;11.12;81.50
72128;DHT22;60000;51.030;7.024;2022-12-24T01:47:23;11.16;81.18
72128;DHT22;60000;51.030;7.024;2022-12-24T01:49:54;11.12;81.27
72128;DHT22;60000;51.030;7.024;2022-12-24T01:52:30;11.10;81.22
72128;DHT22;60000;51.030;7.024;2022-12-24T01:55:06;11.17;80.92
72128;DHT22;60000;51.030;7.024;2022-12-24T01:57:49;11.22;80.49
72128;DHT22;60000;51.030;7.024;2022-12-24T02:00:17;11.19;80.42
72128;DHT22;60000;51.030;7.024;2022-12-24T02:02:45;11.13;80.37
72128;DHT22;60000;51.030;7.024;2022-12-24T02:05:16;11.17;80.13
72128;DHT22;60000;51.030;7.024;2022-12-24T02:07:42;11.15;79.94
72128;DHT22;60000;51.030;7.024;2022-12-24T02:10:10;11.19;79.68
72128;DHT22;60000;51.030;7.024;2022-12-24T02:12:36;11.13;79.78
72128;DHT22;60000;51.030;7.024;2022-12-24T02:15:05;11.16;79.67
72128;DHT22;60000;51.030;7.024;2022-12-24T02:34:27;10.95;80.31
72128;DHT22;60000;51.030;7.024;2022-12-24T02:36:58;10.91;80.51
72128;DHT22;60000;51.030;7.024;2022-12-24T02:39:35;10.93;80.43
72128;DHT22;60000;51.030;7.024;2022-12-24T02:42:02;10.95;80.44
72128;DHT22;60000;51.030;7.024;2022-12-24T02:45:03;10.91;80.25
72128;DHT22;60000;51.030;7.024;2022-12-24T02:47:27;10.89;80.78
72128;DHT22;60000;51.030;7.024;2022-12-24T02:49:53;10.86;80.78
72128;DHT22;60000;51.030;7.024;2022-12-24T02:52:35;10.79;81.11
72128;DHT22;60000;51.030;7.024;2022-12-24T02:55:07;10.80;81.12
72128;DHT22;60000;51.030;7.024;2022-12-24T02:57:42;10.76;81.53
72128;DHT22;60000;51.030;7.024;2022-12-24T03:00:14;10.82;81.51
72128;DHT22;60000;51.030;7.024;2022-12-24T03:02:49;10.88;81.38
72128;DHT22;60000;51.030;7.024;2022-12-24T03:05:41;10.86;81.63
72128;DHT22;60000;51.030;7.024;2022-12-24T03:11:00;10.92;81.83
72128;DHT22;60000;51.030;7.024;2022-12-24T03:13:27;10.86;81.89
72128;DHT22;60000;51.030;7.024;2022-12-24T03:15:53;10.88;82.05
72128;DHT22;60000;51.030;7.024;2022-12-24T03:18:25;10.86;82.46
72128;DHT22;60000;51.030;7.024;2022-12-24T03:21:11;10.86;83.04
72128;DHT22;60000;51.030;7.024;2022-12-24T03:23:37;10.83;83.82
72128;DHT22;60000;51.030;7.024;2022-12-24T03:26:08;10.80;84.19
72128;DHT22;60000;51.030;7.024;2022-12-24T03:28:36;10.82;84.13
72128;DHT22;60000;51.030;7.024;2022-12-24T03:31:03;10.79;84.01
72128;DHT22;60000;51.030;7.024;2022-12-24T03:33:29;10.76;84.18
72128;DHT22;60000;51.030;7.024;2022-12-24T03:35:54;10.75;84.11
72128;DHT22;60000;51.030;7.024;2022-12-24T03:38:20;10.83;83.60
72128;DHT22;60000;51.030;7.024;2022-12-24T03:40:45;10.82;83.61
72128;DHT22;60000;51.030;7.024;2022-12-24T03:43:10;10.82;84.02
72128;DHT22;60000;51.030;7.024;2022-12-24T03:45:36;10.80;84.65
72128;DHT22;60000;51.030;7.024;2022-12-24T03:48:01;10.76;85.08
72128;DHT22;60000;51.030;7.024;2022-12-24T03:50:26;10.71;85.56
72128;DHT22;60000;51.030;7.024;2022-12-24T03:52:53;10.69;85.53
72128;DHT22;60000;51.030;7.024;2022-12-24T03:55:18;10.62;85.48
72128;DHT22;60000;51.030;7.024;2022-12-24T03:57:44;10.59;85.60
72128;DHT22;60000;51.030;7.024;2022-12-24T04:00:09;10.65;85.19
72128;DHT22;60000;51.030;7.024;2022-12-24T04:02:35;10.62;85.07
72128;DHT22;60000;51.030;7.024;2022-12-24T04:05:01;10.59;85.07
72128;DHT22;60000;51.030;7.024;2022-12-24T04:07:26;10.62;84.55
72128;DHT22;60000;51.030;7.024;2022-12-24T04:09:51;10.62;84.81
72128;DHT22;60000;51.030;7.024;2022-12-24T04:12:17;10.61;84.55
72128;DHT22;60000;51.030;7.024;2022-12-24T04:14:42;10.57;84.73
72128;DHT22;60000;51.030;7.024;2022-12-24T04:17:07;10.55;84.61
72128;DHT22;60000;51.030;7.024;2022-12-24T04:19:34;10.52;84.56
72128;DHT22;60000;51.030;7.024;2022-12-24T04:21:59;10.45;84.69
72128;DHT22;60000;51.030;7.024;2022-12-24T04:24:25;10.42;84.85
72128;DHT22;60000;51.030;7.024;2022-12-24T04:26:50;10.44;84.85
72128;DHT22;60000;51.030;7.024;2022-12-24T04:29:15;10.44;84.77
72128;DHT22;60000;51.030;7.024;2022-12-24T04:31:41;10.42;84.73
72128;DHT22;60000;51.030;7.024;2022-12-24T04:34:06;10.42;84.83
72128;DHT22;60000;51.030;7.024;2022-12-24T04:36:32;10.44;84.75
72128;DHT22;60000;51.030;7.024;2022-12-24T04:38:57;10.45;84.54
72128;DHT22;60000;51.030;7.024;2022-12-24T04:41:23;10.42;84.50
72128;DHT22;60000;51.030;7.024;2022-12-24T04:43:50;10.44;84.55
72128;DHT22;60000;51.030;7.024;2022-12-24T04:46:18;10.42;84.47
72128;DHT22;60000;51.030;7.024;2022-12-24T04:48:47;10.40;84.64
72128;DHT22;60000;51.030;7.024;2022-12-24T04:51:13;10.38;84.76
72128;DHT22;60000;51.030;7.024;2022-12-24T04:53:39;10.33;84.90
72128;DHT22;60000;51.030;7.024;2022-12-24T04:56:11;10.38;84.89
72128;DHT22;60000;51.030;7.024;2022-12-24T04:58:37;10.37;84.94
72128;DHT22;60000;51.030;7.024;2022-12-24T05:01:07;10.45;84.84
72128;DHT22;60000;51.030;7.024;2022-12-24T05:03:33;10.41;84.88
72128;DHT22;60000;51.030;7.024;2022-12-24T05:06:05;10.38;85.02
72128;DHT22;60000;51.030;7.024;2022-12-24T05:08:31;10.38;85.13
72128;DHT22;60000;51.030;7.024;2022-12-24T05:10:58;10.37;85.10
72128;DHT22;60000;51.030;7.024;2022-12-24T05:13:24;10.42;85.07
72128;DHT22;60000;51.030;7.024;2022-12-24T05:15:50;10.44;84.95
72128;DHT22;60000;51.030;7.024;2022-12-24T05:18:15;10.42;85.06
72128;DHT22;60000;51.030;7.024;2022-12-24T05:20:41;10.40;85.03
72128;DHT22;60000;51.030;7.024;2022-12-24T05:23:06;10.37;85.15
72128;DHT22;60000;51.030;7.024;2022-12-24T05:25:50;10.44;85.04
72128;DHT22;60000;51.030;7.024;2022-12-24T05:28:34;10.38;85.18
72128;DHT22;60000;51.030;7.024;2022-12-24T05:30:59;10.36;85.24
72128;DHT22;60000;51.030;7.024;2022-12-24T05:33:24;10.33;85.50
72128;DHT22;60000;51.030;7.024;2022-12-24T05:35:51;10.33;85.49
72128;DHT22;60000;51.030;7.024;2022-12-24T05:38:17;10.33;85.65
72128;DHT22;60000;51.030;7.024;2022-12-24T05:40:42;10.30;85.75
72128;DHT22;60000;51.030;7.024;2022-12-24T05:43:10;10.31;85.84
72128;DHT22;60000;51.030;7.024;2022-12-24T05:45:35;10.31;85.83
72128;DHT22;60000;51.030;7.024;2022-12-24T05:48:00;10.31;85.91
72128;DHT22;60000;51.030;7.024;2022-12-24T05:50:25;10.34;85.82
72128;DHT22;60000;51.030;7.024;2022-12-24T05:52:51;10.34;85.73
72128;DHT22;60000;51.030;7.024;2022-12-24T05:55:16;10.27;85.83
72128;DHT22;60000;51.030;7.024;2022-12-24T05:57:42;10.25;85.92
72128;DHT22;60000;51.030;7.024;2022-12-24T06:00:08;10.20;86.08
72128;DHT22;60000;51.030;7.024;2022-12-24T06:02:33;10.22;86.19
72128;DHT22;60000;51.030;7.024;2022-12-24T06:04:58;10.21;86.23
72128;DHT22;60000;51.030;7.024;2022-12-24T06:07:24;10.14;86.37
72128;DHT22;60000;51.030;7.024;2022-12-24T06:09:49;10.16;86.54
72128;DHT22;60000;51.030;7.024;2022-12-24T06:12:14;10.14;86.59
72128;DHT22;60000;51.030;7.024;2022-12-24T06:14:40;10.16;86.61
72128;DHT22;60000;51.030;7.024;2022-12-24T06:17:05;10.16;86.66
72128;DHT22;60000;51.030;7.024;2022-12-24T06:19:30;10.16;86.68
72128;DHT22;60000;51.030;7.024;2022-12-24T06:21:56;10.13;86.86
72128;DHT22;60000;51.030;7.024;2022-12-24T06:24:21;10.13;86.75
72128;DHT22;60000;51.030;7.024;2022-12-24T06:26:46;10.13;86.91
72128;DHT22;60000;51.030;7.024;2022-12-24T06:29:12;10.11;86.91
72128;DHT22;60000;51.030;7.024;2022-12-24T06:31:37;10.07;87.03
72128;DHT22;60000;51.030;7.024;2022-12-24T06:34:03;10.10;87.12
72128;DHT22;60000;51.030;7.024;2022-12-24T06:36:28;10.10;87.17
72128;DHT22;60000;51.030;7.024;2022-12-24T06:38:53;10.06;87.10
72128;DHT22;60000;51.030;7.024;2022-12-24T06:41:20;10.07;87.13
72128;DHT22;60000;51.030;7.024;2022-12-24T06:43:47;10.07;87.21
72128;DHT22;60000;51.030;7.024;2022-12-24T06:46:13;10.00;87.16
72128;DHT22;60000;51.030;7.024;2022-12-24T06:48:38;10.01;87.20
72128;DHT22;60000;51.030;7.024;2022-12-24T06:51:04;9.99;87.21
72128;DHT22;60000;51.030;7.024;2022-12-24T06:53:30;9.93;87.58
72128;DHT22;60000;51.030;7.024;2022-12-24T06:56:06;9.96;87.50
72128;DHT22;60000;51.030;7.024;2022-12-24T06:58:33;9.94;87.62
72128;DHT22;60000;51.030;7.024;2022-12-24T07:01:03;9.96;87.75
72128;DHT22;60000;51.030;7.024;2022-12-24T07:03:29;9.96;87.65
72128;DHT22;60000;51.030;7.024;2022-12-24T07:05:55;10.03;87.54
72128;DHT22;60000;51.030;7.024;2022-12-24T07:08:20;10.06;87.48
72128;DHT22;60000;51.030;7.024;2022-12-24T07:10:48;10.06;87.31
72128;DHT22;60000;51.030;7.024;2022-12-24T07:13:14;10.07;87.29
72128;DHT22;60000;51.030;7.024;2022-12-24T07:15:39;10.09;87.33
72128;DHT22;60000;51.030;7.024;2022-12-24T07:18:04;10.10;87.24
72128;DHT22;60000;51.030;7.024;2022-12-24T07:20:30;10.11;86.98
72128;DHT22;60000;51.030;7.024;2022-12-24T07:22:55;10.14;86.90
72128;DHT22;60000;51.030;7.024;2022-12-24T07:25:20;10.11;86.72
72128;DHT22;60000;51.030;7.024;2022-12-24T07:27:45;10.14;86.57
72128;DHT22;60000;51.030;7.024;2022-12-24T07:30:11;10.18;86.37
72128;DHT22;60000;51.030;7.024;2022-12-24T07:32:36;10.18;86.16
72128;DHT22;60000;51.030;7.024;2022-12-24T07:35:02;10.17;86.21
72128;DHT22;60000;51.030;7.024;2022-12-24T07:37:27;10.13;86.19
72128;DHT22;60000;51.030;7.024;2022-12-24T07:39:52;10.20;85.98
72128;DHT22;60000;51.030;7.024;2022-12-24T07:42:18;10.22;85.66
72128;DHT22;60000;51.030;7.024;2022-12-24T07:44:43;10.28;85.34
72128;DHT22;60000;51.030;7.024;2022-12-24T07:47:08;10.30;85.19
72128;DHT22;60000;51.030;7.024;2022-12-24T07:49:34;10.37;84.95
72128;DHT22;60000;51.030;7.024;2022-12-24T07:52:00;10.36;84.73
72128;DHT22;60000;51.030;7.024;2022-12-24T07:54:26;10.37;84.90
72128;DHT22;60000;51.030;7.024;2022-12-24T07:56:51;10.34;84.88
72128;DHT22;60000;51.030;7.024;2022-12-24T07:59:16;10.34;84.91
72128;DHT22;60000;51.030;7.024;2022-12-24T08:01:42;10.38;84.51
72128;DHT22;60000;51.030;7.024;2022-12-24T08:04:07;10.38;84.54
72128;DHT22;60000;51.030;7.024;2022-12-24T08:06:33;10.40;84.50
72128;DHT22;60000;51.030;7.024;2022-12-24T08:08:58;10.38;84.53
72128;DHT22;60000;51.030;7.024;2022-12-24T08:11:23;10.41;84.45
72128;DHT22;60000;51.030;7.024;2022-12-24T08:13:48;10.42;84.47
72128;DHT22;60000;51.030;7.024;2022-12-24T08:16:14;10.40;84.49
72128;DHT22;60000;51.030;7.024;2022-12-24T08:18:39;10.42;84.56
72128;DHT22;60000;51.030;7.024;2022-12-24T08:21:08;10.44;84.64
72128;DHT22;60000;51.030;7.024;2022-12-24T08:23:35;10.40;84.59
72128;DHT22;60000;51.030;7.024;2022-12-24T08:26:00;10.42;84.75
72128;DHT22;60000;51.030;7.024;2022-12-24T08:28:26;10.42;84.77
72128;DHT22;60000;51.030;7.024;2022-12-24T08:30:51;10.41;84.90
72128;DHT22;60000;51.030;7.024;2022-12-24T08:33:17;10.42;85.11
72128;DHT22;60000;51.030;7.024;2022-12-24T08:35:51;10.44;85.00
72128;DHT22;60000;51.030;7.024;2022-12-24T08:38:17;10.45;85.03
72128;DHT22;60000;51.030;7.024;2022-12-24T08:40:42;10.47;85.02
72128;DHT22;60000;51.030;7.024;2022-12-24T08:43:08;10.47;85.06
72128;DHT22;60000;51.030;7.024;2022-12-24T08:45:34;10.47;85.01
72128;DHT22;60000;51.030;7.024;2022-12-24T08:47:59;10.47;84.98
72128;DHT22;60000;51.030;7.024;2022-12-24T08:50:25;10.51;85.06
72128;DHT22;60000;51.030;7.024;2022-12-24T08:52:52;10.52;85.06
72128;DHT22;60000;51.030;7.024;2022-12-24T08:55:17;10.52;85.02
72128;DHT22;60000;51.030;7.024;2022-12-24T08:57:43;10.55;84.98
72128;DHT22;60000;51.030;7.024;2022-12-24T09:00:10;10.54;85.00
72128;DHT22;60000;51.030;7.024;2022-12-24T09:02:36;10.54;85.00
72128;DHT22;60000;51.030;7.024;2022-12-24T09:05:01;10.55;84.95
72128;DHT22;60000;51.030;7.024;2022-12-24T09:07:26;10.54;85.05
72128;DHT22;60000;51.030;7.024;2022-12-24T09:09:52;10.52;85.15
72128;DHT22;60000;51.030;7.024;2022-12-24T09:12:17;10.51;85.20
72128;DHT22;60000;51.030;7.024;2022-12-24T09:14:42;10.55;85.23
72128;DHT22;60000;51.030;7.024;2022-12-24T09:17:08;10.55;85.23
72128;DHT22;60000;51.030;7.024;2022-12-24T09:19:33;10.52;85.30
72128;DHT22;60000;51.030;7.024;2022-12-24T09:21:58;10.54;85.23
72128;DHT22;60000;51.030;7.024;2022-12-24T09:24:24;10.54;85.25
72128;DHT22;60000;51.030;7.024;2022-12-24T09:26:49;10.55;85.26
72128;DHT22;60000;51.030;7.024;2022-12-24T09:29:15;10.55;85.32
72128;DHT22;60000;51.030;7.024;2022-12-24T09:31:41;10.57;85.27
72128;DHT22;60000;51.030;7.024;2022-12-24T09:34:06;10.59;85.15
72128;DHT22;60000;51.030;7.024;2022-12-24T09:36:33;10.58;85.19
72128;DHT22;60000;51.030;7.024;2022-12-24T09:38:59;10.59;85.26
72128;DHT22;60000;51.030;7.024;2022-12-24T09:41:39;10.57;85.23
72128;DHT22;60000;51.030;7.024;2022-12-24T09:46:44;10.61;85.37
72128;DHT22;60000;51.030;7.024;2022-12-24T09:49:24;10.62;85.35
72128;DHT22;60000;51.030;7.024;2022-12-24T09:52:00;10.65;85.34
72128;DHT22;60000;51.030;7.024;2022-12-24T09:54:31;10.68;85.36
72128;DHT22;60000;51.030;7.024;2022-12-24T09:57:04;10.68;85.28
72128;DHT22;60000;51.030;7.024;2022-12-24T09:59:44;10.69;85.34
72128;DHT22;60000;51.030;7.024;2022-12-24T10:02:13;10.71;85.36
72128;DHT22;60000;51.030;7.024;2022-12-24T10:04:40;10.73;85.25
72128;DHT22;60000;51.030;7.024;2022-12-24T10:07:29;10.73;85.39
72128;DHT22;60000;51.030;7.024;2022-12-24T10:12:36;10.78;85.18
72128;DHT22;60000;51.030;7.024;2022-12-24T10:17:56;10.86;85.21
72128;DHT22;60000;51.030;7.024;2022-12-24T10:23:20;10.95;84.91
72128;DHT22;60000;51.030;7.024;2022-12-24T10:25:57;10.98;84.75
72128;DHT22;60000;51.030;7.024;2022-12-24T10:28:46;10.99;84.80
72128;DHT22;60000;51.030;7.024;2022-12-24T10:31:13;11.03;84.47
72128;DHT22;60000;51.030;7.024;2022-12-24T10:33:43;11.09;84.63
72128;DHT22;60000;51.030;7.024;2022-12-24T10:36:15;11.10;84.36
72128;DHT22;60000;51.030;7.024;2022-12-24T10:38:42;11.15;84.31
72128;DHT22;60000;51.030;7.024;2022-12-24T10:41:07;11.17;84.23
72128;DHT22;60000;51.030;7.024;2022-12-24T10:43:34;11.17;84.29
72128;DHT22;60000;51.030;7.024;2022-12-24T10:46:05;11.20;84.00
72128;DHT22;60000;51.030;7.024;2022-12-24T10:48:37;11.23;83.79
72128;DHT22;60000;51.030;7.024;2022-12-24T10:51:18;11.29;83.64
72128;DHT22;60000;51.030;7.024;2022-12-24T10:53:52;11.29;83.65
72128;DHT22;60000;51.030;7.024;2022-12-24T10:56:20;11.30;83.51
72128;DHT22;60000;51.030;7.024;2022-12-24T10:58:51;11.33;83.57
72128;DHT22;60000;51.030;7.024;2022-12-24T11:01:18;11.37;82.90
72128;DHT22;60000;51.030;7.024;2022-12-24T11:03:43;11.37;83.06
72128;DHT22;60000;51.030;7.024;2022-12-24T11:06:14;11.34;83.29
72128;DHT22;60000;51.030;7.024;2022-12-24T11:08:42;11.34;83.40
72128;DHT22;60000;51.030;7.024;2022-12-24T11:11:19;11.36;83.41
72128;DHT22;60000;51.030;7.024;2022-12-24T11:13:51;11.38;83.21
72128;DHT22;60000;51.030;7.024;2022-12-24T11:18:55;11.40;83.07
72128;DHT22;60000;51.030;7.024;2022-12-24T11:23:57;11.44;82.76
72128;DHT22;60000;51.030;7.024;2022-12-24T11:26:28;11.50;82.74
72128;DHT22;60000;51.030;7.024;2022-12-24T11:31:33;11.54;81.91
72128;DHT22;60000;51.030;7.024;2022-12-24T11:34:17;11.57;81.82
72128;DHT22;60000;51.030;7.024;2022-12-24T11:36:42;11.60;81.64
72128;DHT22;60000;51.030;7.024;2022-12-24T11:39:19;11.67;81.47
72128;DHT22;60000;51.030;7.024;2022-12-24T11:41:45;11.78;81.35
72128;DHT22;60000;51.030;7.024;2022-12-24T11:44:10;11.81;80.54
72128;DHT22;60000;51.030;7.024;2022-12-24T11:46:41;11.88;80.78
72128;DHT22;60000;51.030;7.024;2022-12-24T11:51:39;12.02;80.52
72128;DHT22;60000;51.030;7.024;2022-12-24T11:54:23;12.09;80.00
72128;DHT22;60000;51.030;7.024;2022-12-24T11:56:52;12.09;79.49
72128;DHT22;60000;51.030;7.024;2022-12-24T11:59:27;12.11;78.91
72128;DHT22;60000;51.030;7.024;2022-12-24T12:01:58;12.12;78.57
72128;DHT22;60000;51.030;7.024;2022-12-24T12:04:29;12.16;78.93
72128;DHT22;60000;51.030;7.024;2022-12-24T12:06:59;12.16;78.29
72128;DHT22;60000;51.030;7.024;2022-12-24T12:09:32;12.16;78.06
72128;DHT22;60000;51.030;7.024;2022-12-24T12:12:05;12.21;78.49
72128;DHT22;60000;51.030;7.024;2022-12-24T12:14:37;12.18;77.85
72128;DHT22;60000;51.030;7.024;2022-12-24T12:17:23;12.16;77.62
72128;DHT22;60000;51.030;7.024;2022-12-24T12:19:59;12.14;77.81
72128;DHT22;60000;51.030;7.024;2022-12-24T12:22:47;12.16;77.86
72128;DHT22;60000;51.030;7.024;2022-12-24T12:25:23;12.18;78.06
72128;DHT22;60000;51.030;7.024;2022-12-24T12:27:53;12.25;77.83
72128;DHT22;60000;51.030;7.024;2022-12-24T12:30:21;12.22;77.80
72128;DHT22;60000;51.030;7.024;2022-12-24T12:32:55;12.22;78.06
72128;DHT22;60000;51.030;7.024;2022-12-24T12:35:25;12.24;78.31
72128;DHT22;60000;51.030;7.024;2022-12-24T12:38:05;12.25;78.43
72128;DHT22;60000;51.030;7.024;2022-12-24T12:56:35;12.39;76.95
72128;DHT22;60000;51.030;7.024;2022-12-24T12:59:05;12.50;76.65
72128;DHT22;60000;51.030;7.024;2022-12-24T13:07:32;12.86;75.38
72128;DHT22;60000;51.030;7.024;2022-12-24T13:18:03;12.95;74.47
72128;DHT22;60000;51.030;7.024;2022-12-24T13:20:34;12.90;73.79
72128;DHT22;60000;51.030;7.024;2022-12-24T13:23:17;12.86;74.07
72128;DHT22;60000;51.030;7.024;2022-12-24T13:25:45;12.83;74.17
72128;DHT22;60000;51.030;7.024;2022-12-24T13:33:48;12.72;74.58
72128;DHT22;60000;51.030;7.024;2022-12-24T13:36:15;12.67;74.73
72128;DHT22;60000;51.030;7.024;2022-12-24T13:38:51;12.70;75.03
72128;DHT22;60000;51.030;7.024;2022-12-24T13:46:54;12.77;75.23
72128;DHT22;60000;51.030;7.024;2022-12-24T13:54:29;12.76;73.38
72128;DHT22;60000;51.030;7.024;2022-12-24T13:56:55;12.76;73.72
72128;DHT22;60000;51.030;7.024;2022-12-24T13:59:36;12.74;73.02
72128;DHT22;60000;51.030;7.024;2022-12-24T14:02:03;12.72;72.83
72128;DHT22;60000;51.030;7.024;2022-12-24T14:04:32;12.72;73.24
72128;DHT22;60000;51.030;7.024;2022-12-24T14:07:01;12.67;73.51
72128;DHT22;60000;51.030;7.024;2022-12-24T14:09:28;12.63;73.64
72128;DHT22;60000;51.030;7.024;2022-12-24T14:14:34;12.55;73.66
72128;DHT22;60000;51.030;7.024;2022-12-24T14:17:02;12.53;73.69
72128;DHT22;60000;51.030;7.024;2022-12-24T14:19:41;12.52;73.66
72128;DHT22;60000;51.030;7.024;2022-12-24T14:30:12;12.33;73.75
72128;DHT22;60000;51.030;7.024;2022-12-24T14:32:40;12.26;73.73
72128;DHT22;60000;51.030;7.024;2022-12-24T14:37:31;12.12;73.41
72128;DHT22;60000;51.030;7.024;2022-12-24T14:39:56;12.02;73.89
72128;DHT22;60000;51.030;7.024;2022-12-24T14:45:00;11.91;74.25
72128;DHT22;60000;51.030;7.024;2022-12-24T14:50:24;11.79;74.86
72128;DHT22;60000;51.030;7.024;2022-12-24T14:55:37;11.64;75.36
72128;DHT22;60000;51.030;7.024;2022-12-24T14:58:26;11.57;75.79
72128;DHT22;60000;51.030;7.024;2022-12-24T15:00:54;11.56;76.00
72128;DHT22;60000;51.030;7.024;2022-12-24T15:03:22;11.50;76.09
72128;DHT22;60000;51.030;7.024;2022-12-24T15:06:02;11.48;76.13
72128;DHT22;60000;51.030;7.024;2022-12-24T15:08:36;11.43;76.22
72128;DHT22;60000;51.030;7.024;2022-12-24T15:11:04;11.30;76.31
72128;DHT22;60000;51.030;7.024;2022-12-24T15:13:39;11.23;76.70
72128;DHT22;60000;51.030;7.024;2022-12-24T15:16:10;11.15;77.04
72128;DHT22;60000;51.030;7.024;2022-12-24T15:18:48;11.08;77.39
72128;DHT22;60000;51.030;7.024;2022-12-24T15:21:18;11.02;77.93
72128;DHT22;60000;51.030;7.024;2022-12-24T15:23:46;10.98;78.32
72128;DHT22;60000;51.030;7.024;2022-12-24T15:26:22;10.98;78.74
72128;DHT22;60000;51.030;7.024;2022-12-24T15:28:48;10.96;78.77
72128;DHT22;60000;51.030;7.024;2022-12-24T15:31:19;10.98;78.85
72128;DHT22;60000;51.030;7.024;2022-12-24T15:33:46;10.96;79.18
72128;DHT22;60000;51.030;7.024;2022-12-24T15:36:13;10.99;79.08
72128;DHT22;60000;51.030;7.024;2022-12-24T15:38:42;10.95;79.13
72128;DHT22;60000;51.030;7.024;2022-12-24T15:41:23;10.92;79.24
72128;DHT22;60000;51.030;7.024;2022-12-24T15:43:50;10.85;79.22
72128;DHT22;60000;51.030;7.024;2022-12-24T15:46:24;10.79;79.35
72128;DHT22;60000;51.030;7.024;2022-12-24T15:48:51;10.72;79.47
72128;DHT22;60000;51.030;7.024;2022-12-24T15:51:27;10.65;79.77
72128;DHT22;60000;51.030;7.024;2022-12-24T15:54:02;10.54;80.14
72128;DHT22;60000;51.030;7.024;2022-12-24T15:56:36;10.47;80.34
72128;DHT22;60000;51.030;7.024;2022-12-24T15:59:29;10.38;80.75
72128;DHT22;60000;51.030;7.024;2022-12-24T16:01:56;10.31;80.81
72128;DHT22;60000;51.030;7.024;2022-12-24T16:04:41;10.27;81.01
72128;DHT22;60000;51.030;7.024;2022-12-24T16:07:10;10.21;81.25
72128;DHT22;60000;51.030;7.024;2022-12-24T16:09:47;10.18;81.62
72128;DHT22;60000;51.030;7.024;2022-12-24T16:12:16;10.20;81.69
72128;DHT22;60000;51.030;7.024;2022-12-24T16:14:46;10.14;81.72
72128;DHT22;60000;51.030;7.024;2022-12-24T16:17:33;10.11;81.97
72128;DHT22;60000;51.030;7.024;2022-12-24T16:20:05;10.10;82.29
72128;DHT22;60000;51.030;7.024;2022-12-24T16:22:31;10.04;82.28
72128;DHT22;60000;51.030;7.024;2022-12-24T16:25:02;10.03;82.52
72128;DHT22;60000;51.030;7.024;2022-12-24T16:27:39;10.03;82.44
72128;DHT22;60000;51.030;7.024;2022-12-24T16:30:05;9.96;82.40
72128;DHT22;60000;51.030;7.024;2022-12-24T16:32:32;9.93;82.42
72128;DHT22;60000;51.030;7.024;2022-12-24T16:35:00;9.86;82.45
72128;DHT22;60000;51.030;7.024;2022-12-24T16:37:26;9.78;82.47
72128;DHT22;60000;51.030;7.024;2022-12-24T16:39:52;9.69;82.94
72128;DHT22;60000;51.030;7.024;2022-12-24T16:42:18;9.60;82.79
72128;DHT22;60000;51.030;7.024;2022-12-24T16:45:02;9.51;82.88
72128;DHT22;60000;51.030;7.024;2022-12-24T16:47:30;9.39;82.98
72128;DHT22;60000;51.030;7.024;2022-12-24T16:50:00;9.31;83.39
72128;DHT22;60000;51.030;7.024;2022-12-24T16:52:28;9.27;83.44
72128;DHT22;60000;51.030;7.024;2022-12-24T16:54:55;9.14;83.56
72128;DHT22;60000;51.030;7.024;2022-12-24T16:57:21;9.05;83.99
72128;DHT22;60000;51.030;7.024;2022-12-24T16:59:47;9.01;84.58
72128;DHT22;60000;51.030;7.024;2022-12-24T17:02:14;8.99;84.72
72128;DHT22;60000;51.030;7.024;2022-12-24T17:04:40;8.92;84.80
72128;DHT22;60000;51.030;7.024;2022-12-24T17:07:06;8.88;85.22
72128;DHT22;60000;51.030;7.024;2022-12-24T17:09:32;8.77;85.18
72128;DHT22;60000;51.030;7.024;2022-12-24T17:11:57;8.73;85.42
72128;DHT22;60000;51.030;7.024;2022-12-24T17:14:23;8.66;85.72
72128;DHT22;60000;51.030;7.024;2022-12-24T17:16:48;8.60;85.69
72128;DHT22;60000;51.030;7.024;2022-12-24T17:19:13;8.54;85.90
72128;DHT22;60000;51.030;7.024;2022-12-24T17:21:39;8.49;86.52
72128;DHT22;60000;51.030;7.024;2022-12-24T17:24:05;8.43;86.63
72128;DHT22;60000;51.030;7.024;2022-12-24T17:26:31;8.41;86.82
72128;DHT22;60000;51.030;7.024;2022-12-24T17:28:56;8.39;86.83
72128;DHT22;60000;51.030;7.024;2022-12-24T17:31:22;8.35;86.86